To NAV CANADA Home Page Login to a new session Search on AWWS site Feedback and Comments Disclaimer Vers la page française équivalente Tips FAQ What's new on the site To the Forecasts and Observations / NOTAM section To "File a Flight Plan" website Publications and other links Update of the User's profile FIC Telephone Numbers My Weather Data Folder Route Weather Data Regional Weather Data Local Weather Data To the Forecasts and Observations / NOTAM section
Request Generated 12/04/2016 at 22:22:44 UTC . Weather information available at that time is displayed.

METAR/TAF

WINNIPEG/JAMES ARMSTRONG RICHARDSON INTL/MB    

METAR CYWG 042200Z 27003KT 2 1/4SM -SN BR OVC005 00/M00 A2956 RMK
SN1SC7 SLP025=
SPECI CYWG 042134Z 25003KT 2 1/2SM -SN BR OVC006 00/M00 A2956 RMK SC8
CIG VRB 4-8 SLP025=
SPECI CYWG 042120Z CCA 22002KT 3SM -SN BR OVC006 00/M00 A2956 RMK SC8
CIG VRB 4-8 SLP024=
SPECI CYWG 042120Z 22002KT 3SM -SN BR OVC006 00/M00 A2956 RMK SC8 CIG
VRB 004-008 SLP024=
METAR CYWG 042100Z 19003KT 2 1/4SM -SN BR OVC004 00/M00 A2956 RMK
SN2SC6 SLP024=
SPECI CYWG 042040Z 19005KT 1 3/4SM -SN BR OVC005 00/M00 A2956 RMK
SN4SC4 SLP024=
METAR CYWG 042000Z 18006KT 1SM R36/P6000FT/U -SN BR OVC004 00/M00
A2957 RMK SN4SC4 SLP026=

TAF CYWG 041738Z 0418/0518 14012KT 1SM -SN BR OVC008 TEMPO 0418/0424
4SM -SN OVC012
BECMG 0419/0421 27010KT
FM050000 30012KT P6SM -SN BKN012 OVC025 TEMPO 0500/0506 4SM -SN
BR BKN008 OVC012
FM050600 30008KT P6SM OVC010 TEMPO 0506/0518 4SM BR OVC006
BECMG 0510/0512 10008KT
RMK NXT FCST BY 050000Z=
Your time UTC time
Weather data provided by Environment Canada and NAV CANADA